AirNav   Air Wisconsin Up To $57,000 Bonus
 
 684 users online  

22CN ABC-TV Heliport
Los Angeles, California, USA

GOING TO LOS ANGELES?


FAA INFORMATION EFFECTIVE 07 NOVEMBER 2019

Location

FAA Identifier: 22CN
Lat/Long: 34-06-12.4900N 118-16-45.7100W
34-06.208167N 118-16.761833W
34.1034694,-118.2793639
(estimated)
Elevation: 422 ft. / 129 m (estimated)
Variation: 14E (1985)
From city: 3 miles NW of LOS ANGELES, CA
Time zone: UTC -8 (UTC -7 during Daylight Saving Time)
Zip code: 90027

Heliport Operations

Heliport use: Private use. Permission required prior to landing
Activation date: 05/1964
Control tower: no
ARTCC: LOS ANGELES CENTER
FSS: HAWTHORNE FLIGHT SERVICE STATION
Attendance: UNATNDD
Wind indicator: yes
Segmented circle: no

Heliport Communications

UNICOM: 123.05
WX ASOS at BUR (7 nm NW): PHONE 818-841-1384
WX ASOS at SMO (10 nm SW): PHONE 310-392-6453
WX ASOS at HHR (11 nm S): PHONE 310-973-8930
WX AWOS-3PT at WHP (11 nm NW): 132.1 (818-899-9820)
WX ASOS at LAX (12 nm SW): PHONE 310-568-1486
WX AWOS-3PT at EMT (12 nm E): 118.75 ((626) 444-1107)
WX ASOS at VNY (12 nm NW): PHONE 818-904-9213
WX AWOS-3PT at CPM (13 nm S): 127.150 (310-631-4958)
WX ASOS at LGB (18 nm S): PHONE 562-424-0572

Nearby radio navigation aids

VOR radial/distance  VOR name  Freq  Var
SMOr043/10.4SANTA MONICA VOR/DME110.8015E
LAXr022/12.7LOS ANGELES VORTAC113.6015E
VNYr109/12.8VAN NUYS VOR/DME113.1015E
SLIr315/22.2SEAL BEACH VORTAC115.7015E
POMr259/24.5POMONA VORTAC110.4015E
PMDr184/33.4PALMDALE VORTAC114.5015E
FIMr102/33.5FILLMORE VORTAC112.5015E
ELBr299/37.5EL TORO VOR/DME117.2014E
LHSr142/37.8LAKE HUGHES VORTAC114.3515E
VTUr076/38.3VENTURA VOR/DME108.2015E
PDZr272/38.9PARADISE VORTAC112.2015E

Heliport Services

Airframe service: NONE
Powerplant service: NONE

Runway Information

Helipad H1

Dimensions: 65 x 65 ft. / 20 x 20 m
Surface: asphalt
Latitude: 34-06.208167N
Longitude: 118-16.761833W
Elevation: 422.0 ft.
Traffic pattern: leftleft
Obstructions: bldgs
BUILDINGS NW & NE.

Heliport Ownership and Management from official FAA records

Ownership: Privately-owned
Owner: AMERICAN BROADCASTING CO
2040 AVENUE OF STARS
CENTURY CITY, CA 90067
Phone 213-557-5355
Manager: JOHN COMBS
4151 PROSPECT AVE
LOS ANGELES, CA 90027
Phone 213-557-5355

Additional Remarks

FOR CD CTC LOS ANGELES ARTCC AT 661-575-2079.

Instrument Procedures

There are no published instrument procedures at 22CN.

Some nearby airports with instrument procedures:

KBUR - Bob Hope Airport (7 nm NW)
KSMO - Santa Monica Municipal Airport (10 nm SW)
KHHR - Jack Northrop Field/Hawthorne Municipal Airport (11 nm S)
KWHP - Whiteman Airport (11 nm NW)
KLAX - Los Angeles International Airport (12 nm SW)
KEMT - San Gabriel Valley Airport (12 nm E)
KVNY - Van Nuys Airport (12 nm NW)
KTOA - Zamperini Field Airport (18 nm S)
KLGB - Long Beach Airport (Daugherty Field) (18 nm S)
 
Loc | Ops | Rwys | IFR | FBO | Links
Com | Nav | Svcs | Stats | Notes
Area around 22CN (ABC-TV Heliport)
 
Road maps at: MapQuest Bing Google
 
Aerial photo
No photo
 
Sectional chart

 
Airport distance calculator
Flying to ABC-TV Heliport? Find the distance to fly.

From to 22CN

Sunrise and sunset
Times for 19-Nov-2019
 Local
(UTC-8)
 Zulu
(UTC)
Morning civil twilight06:0414:04
Sunrise06:3114:31
Sunset16:4600:46
Evening civil twilight17:1301:13

Current date and time
Zulu (UTC)  19-Nov-2019 11:56:48
Local (UTC-8)  19-Nov-2019 03:56:48
 
METAR
KCQT 
4nm SE 
191052Z AUTO 00000KT 10SM CLR 18/07 A2976 RMK AO2 SLP075 T01780072
KBUR 
7nm NW 
191053Z 28004KT 10SM CLR 16/01 A2978 RMK AO2 SLP071 T01560011
KSMO 
10nm SW 
191051Z AUTO 00000KT 10SM CLR 16/07 A2977 RMK AO2 SLP079 T01560067
KWHP 
11nm NW 
190355Z 00000KT 10SM SKC 21/M05 A2987
KLAX 
11nm SW 
191053Z 07003KT 10SM FEW200 SCT250 17/08 A2977 RMK AO2 SLP078 T01720083 $
KHHR 
12nm S 
191053Z AUTO 00000KT 10SM CLR 17/08 A2977 RMK AO2 SLP078 T01670083 $
KVNY 
12nm NW 
191051Z AUTO 29003KT 10SM CLR 14/01 A2978 RMK AO2 SLP074 T01440011
KEMT 
13nm E 
190245Z 16003KT 10SM CLR 22/00 A2984
KLGB 
18nm S 
191053Z AUTO 32003KT 10SM CLR 15/09 A2976 RMK AO2 SLP077 T01500089
KTOA 
19nm S 
190347Z 26008KT 10SM FEW200 22/M04 A2982 RMK LAST
TAF
KBUR 
7nm NW 
190546Z 1906/2006 VRB03KT P6SM BKN250 FM191200 14005KT P6SM BKN200 FM192000 17010KT P6SM BKN100 FM200400 17008KT P6SM VCSH OVC080
KSMO 
10nm SW 
190546Z 1906/2006 VRB03KT P6SM BKN250 FM191000 08005KT P6SM BKN200 FM191900 23008KT P6SM BKN100 FM192200 21008KT P6SM VCSH OVC080
KLAX 
11nm SW 
190806Z 1908/2012 09005KT P6SM BKN200 FM191900 26012KT P6SM BKN100 FM192200 21008KT P6SM VCSH OVC080 FM200600 22008KT P6SM -RA SCT030 OVC050 FM200900 25012KT P6SM -RA OVC025
KVNY 
12nm NW 
190546Z 1906/2006 VRB03KT P6SM BKN250 FM191400 12005KT P6SM BKN200 FM192000 15008KT P6SM BKN100 FM200400 15008KT P6SM VCSH OVC080
KLGB 
18nm S 
190546Z 1906/2006 VRB03KT P6SM BKN250 FM191200 12005KT P6SM BKN200 FM191900 20008KT P6SM BKN100 FM192200 20008KT P6SM VCSH OVC080 FM200400 20008KT P6SM VCSH OVC040
NOTAMs
Click for the latest NOTAMs
NOTAMs are issued by the DoD/FAA and will open in a separate window not controlled by AirNav.

 

 
 

Would you like to see your business listed on this page?

 If your business provides an interesting product or service to pilots, flight crews, aircraft, or users of the ABC-TV Heliport, you should consider listing it here.  To start the listing process, click on the button below
 
Add a business
 

Other Pages about ABC-TV Heliport

Update a link
 
Copyright © AirNav, LLC. All rights reserved. Privacy Policy  Contact